sensor_id;sensor_type;location;lat;lon;timestamp;P1;durP1;ratioP1;P2;durP2;ratioP2
23060;SDS011;11698;47.690;9.132;2023-03-15T00:01:32;1.25;;;0.30;;
23060;SDS011;11698;47.690;9.132;2023-03-15T00:03:59;0.10;;;0.10;;
23060;SDS011;11698;47.690;9.132;2023-03-15T00:06:25;0.00;;;0.00;;
23060;SDS011;11698;47.690;9.132;2023-03-15T00:08:51;0.40;;;0.20;;
23060;SDS011;11698;47.690;9.132;2023-03-15T00:11:17;0.10;;;0.10;;
23060;SDS011;11698;47.690;9.132;2023-03-15T00:13:44;0.10;;;0.10;;
23060;SDS011;11698;47.690;9.132;2023-03-15T00:16:10;0.70;;;0.30;;
23060;SDS011;11698;47.690;9.132;2023-03-15T00:18:41;0.10;;;0.10;;
23060;SDS011;11698;47.690;9.132;2023-03-15T00:21:07;0.40;;;0.20;;
23060;SDS011;11698;47.690;9.132;2023-03-15T00:23:33;0.40;;;0.10;;
23060;SDS011;11698;47.690;9.132;2023-03-15T00:25:59;0.37;;;0.10;;
23060;SDS011;11698;47.690;9.132;2023-03-15T00:28:25;0.00;;;0.00;;
23060;SDS011;11698;47.690;9.132;2023-03-15T00:31:36;0.20;;;0.10;;
23060;SDS011;11698;47.690;9.132;2023-03-15T00:33:37;0.10;;;0.10;;
23060;SDS011;11698;47.690;9.132;2023-03-15T00:36:04;0.50;;;0.20;;
23060;SDS011;11698;47.690;9.132;2023-03-15T00:38:31;0.22;;;0.20;;
23060;SDS011;11698;47.690;9.132;2023-03-15T00:40:57;0.10;;;0.08;;
23060;SDS011;11698;47.690;9.132;2023-03-15T00:43:23;0.20;;;0.20;;
23060;SDS011;11698;47.690;9.132;2023-03-15T00:45:49;0.50;;;0.20;;
23060;SDS011;11698;47.690;9.132;2023-03-15T00:48:15;0.65;;;0.30;;
23060;SDS011;11698;47.690;9.132;2023-03-15T00:50:41;1.05;;;0.30;;
23060;SDS011;11698;47.690;9.132;2023-03-15T00:53:07;0.10;;;0.10;;
23060;SDS011;11698;47.690;9.132;2023-03-15T00:55:34;0.08;;;0.08;;
23060;SDS011;11698;47.690;9.132;2023-03-15T00:58:00;0.50;;;0.30;;
23060;SDS011;11698;47.690;9.132;2023-03-15T01:00:26;0.65;;;0.20;;
23060;SDS011;11698;47.690;9.132;2023-03-15T01:02:52;0.30;;;0.15;;
23060;SDS011;11698;47.690;9.132;2023-03-15T01:05:18;0.73;;;0.70;;
23060;SDS011;11698;47.690;9.132;2023-03-15T01:07:45;0.43;;;0.43;;
23060;SDS011;11698;47.690;9.132;2023-03-15T01:10:11;0.25;;;0.20;;
23060;SDS011;11698;47.690;9.132;2023-03-15T01:12:38;0.13;;;0.10;;
23060;SDS011;11698;47.690;9.132;2023-03-15T01:15:05;0.70;;;0.40;;
23060;SDS011;11698;47.690;9.132;2023-03-15T01:17:32;0.28;;;0.20;;
23060;SDS011;11698;47.690;9.132;2023-03-15T01:19:58;0.30;;;0.30;;
23060;SDS011;11698;47.690;9.132;2023-03-15T01:22:24;0.90;;;0.35;;
23060;SDS011;11698;47.690;9.132;2023-03-15T01:24:51;1.33;;;0.40;;
23060;SDS011;11698;47.690;9.132;2023-03-15T01:27:17;0.25;;;0.22;;
23060;SDS011;11698;47.690;9.132;2023-03-15T01:29:43;0.55;;;0.32;;
23060;SDS011;11698;47.690;9.132;2023-03-15T01:32:09;0.40;;;0.20;;
23060;SDS011;11698;47.690;9.132;2023-03-15T01:34:35;0.50;;;0.50;;
23060;SDS011;11698;47.690;9.132;2023-03-15T01:37:01;0.25;;;0.25;;
23060;SDS011;11698;47.690;9.132;2023-03-15T01:39:28;0.28;;;0.28;;
23060;SDS011;11698;47.690;9.132;2023-03-15T01:41:54;0.40;;;0.32;;
23060;SDS011;11698;47.690;9.132;2023-03-15T01:44:20;0.60;;;0.50;;
23060;SDS011;11698;47.690;9.132;2023-03-15T01:46:48;0.85;;;0.50;;
23060;SDS011;11698;47.690;9.132;2023-03-15T01:49:24;1.45;;;0.85;;
23060;SDS011;11698;47.690;9.132;2023-03-15T01:51:56;1.98;;;0.70;;
23060;SDS011;11698;47.690;9.132;2023-03-15T01:59:38;1.60;;;0.70;;
23060;SDS011;11698;47.690;9.132;2023-03-15T02:02:05;1.40;;;0.70;;
23060;SDS011;11698;47.690;9.132;2023-03-15T02:04:35;1.60;;;0.90;;
23060;SDS011;11698;47.690;9.132;2023-03-15T02:07:03;0.68;;;0.57;;
23060;SDS011;11698;47.690;9.132;2023-03-15T02:09:34;1.17;;;0.73;;
23060;SDS011;11698;47.690;9.132;2023-03-15T02:12:03;1.05;;;0.50;;
23060;SDS011;11698;47.690;9.132;2023-03-15T02:14:29;1.13;;;0.70;;
23060;SDS011;11698;47.690;9.132;2023-03-15T02:16:56;1.80;;;0.60;;
23060;SDS011;11698;47.690;9.132;2023-03-15T02:19:29;0.87;;;0.60;;
23060;SDS011;11698;47.690;9.132;2023-03-15T02:22:06;1.58;;;0.50;;
23060;SDS011;11698;47.690;9.132;2023-03-15T02:24:39;3.50;;;1.00;;
23060;SDS011;11698;47.690;9.132;2023-03-15T02:27:09;3.80;;;2.10;;
23060;SDS011;11698;47.690;9.132;2023-03-15T02:29:35;3.45;;;1.17;;
23060;SDS011;11698;47.690;9.132;2023-03-15T02:32:01;2.85;;;1.42;;
23060;SDS011;11698;47.690;9.132;2023-03-15T02:34:30;3.08;;;1.25;;
23060;SDS011;11698;47.690;9.132;2023-03-15T02:36:56;2.25;;;0.88;;
23060;SDS011;11698;47.690;9.132;2023-03-15T02:39:22;1.02;;;0.43;;
23060;SDS011;11698;47.690;9.132;2023-03-15T02:41:51;3.78;;;1.00;;
23060;SDS011;11698;47.690;9.132;2023-03-15T02:44:20;3.08;;;0.80;;
23060;SDS011;11698;47.690;9.132;2023-03-15T02:46:48;2.90;;;0.87;;
23060;SDS011;11698;47.690;9.132;2023-03-15T02:49:16;1.00;;;0.50;;
23060;SDS011;11698;47.690;9.132;2023-03-15T02:51:42;1.48;;;0.60;;
23060;SDS011;11698;47.690;9.132;2023-03-15T02:54:08;1.10;;;0.40;;
23060;SDS011;11698;47.690;9.132;2023-03-15T02:56:34;1.42;;;0.40;;
23060;SDS011;11698;47.690;9.132;2023-03-15T02:59:00;1.20;;;0.50;;
23060;SDS011;11698;47.690;9.132;2023-03-15T03:01:26;1.50;;;0.57;;
23060;SDS011;11698;47.690;9.132;2023-03-15T03:03:52;1.65;;;0.60;;
23060;SDS011;11698;47.690;9.132;2023-03-15T03:06:18;1.58;;;0.50;;
23060;SDS011;11698;47.690;9.132;2023-03-15T03:08:44;1.47;;;0.50;;
23060;SDS011;11698;47.690;9.132;2023-03-15T03:11:12;1.08;;;0.38;;
23060;SDS011;11698;47.690;9.132;2023-03-15T03:13:38;0.70;;;0.43;;
23060;SDS011;11698;47.690;9.132;2023-03-15T03:16:04;1.00;;;0.50;;
23060;SDS011;11698;47.690;9.132;2023-03-15T03:18:30;1.10;;;0.55;;
23060;SDS011;11698;47.690;9.132;2023-03-15T03:21:00;1.85;;;0.40;;
23060;SDS011;11698;47.690;9.132;2023-03-15T03:23:28;1.75;;;0.43;;
23060;SDS011;11698;47.690;9.132;2023-03-15T03:25:54;1.48;;;0.40;;
23060;SDS011;11698;47.690;9.132;2023-03-15T03:28:21;1.55;;;0.55;;
23060;SDS011;11698;47.690;9.132;2023-03-15T03:30:48;1.48;;;0.47;;
23060;SDS011;11698;47.690;9.132;2023-03-15T03:33:14;1.67;;;0.63;;
23060;SDS011;11698;47.690;9.132;2023-03-15T03:35:40;0.50;;;0.50;;
23060;SDS011;11698;47.690;9.132;2023-03-15T03:38:07;1.47;;;0.70;;
23060;SDS011;11698;47.690;9.132;2023-03-15T03:40:33;1.30;;;0.40;;
23060;SDS011;11698;47.690;9.132;2023-03-15T03:42:59;1.20;;;0.32;;
23060;SDS011;11698;47.690;9.132;2023-03-15T03:45:25;0.88;;;0.40;;
23060;SDS011;11698;47.690;9.132;2023-03-15T03:47:51;1.80;;;0.60;;
23060;SDS011;11698;47.690;9.132;2023-03-15T03:50:17;1.50;;;0.60;;
23060;SDS011;11698;47.690;9.132;2023-03-15T03:52:43;1.45;;;0.50;;
23060;SDS011;11698;47.690;9.132;2023-03-15T03:55:09;0.60;;;0.60;;
23060;SDS011;11698;47.690;9.132;2023-03-15T03:57:38;0.40;;;0.32;;
23060;SDS011;11698;47.690;9.132;2023-03-15T04:00:05;1.42;;;0.57;;
23060;SDS011;11698;47.690;9.132;2023-03-15T04:02:31;0.50;;;0.40;;
23060;SDS011;11698;47.690;9.132;2023-03-15T04:04:58;0.47;;;0.40;;
23060;SDS011;11698;47.690;9.132;2023-03-15T04:07:23;1.70;;;0.40;;
23060;SDS011;11698;47.690;9.132;2023-03-15T04:09:49;0.80;;;0.32;;
23060;SDS011;11698;47.690;9.132;2023-03-15T04:12:15;0.82;;;0.45;;
23060;SDS011;11698;47.690;9.132;2023-03-15T04:14:41;0.35;;;0.35;;
23060;SDS011;11698;47.690;9.132;2023-03-15T04:17:07;1.15;;;0.50;;
23060;SDS011;11698;47.690;9.132;2023-03-15T04:19:34;1.40;;;0.40;;
23060;SDS011;11698;47.690;9.132;2023-03-15T04:21:59;1.00;;;0.60;;
23060;SDS011;11698;47.690;9.132;2023-03-15T04:24:31;0.75;;;0.60;;
23060;SDS011;11698;47.690;9.132;2023-03-15T04:26:58;0.77;;;0.55;;
23060;SDS011;11698;47.690;9.132;2023-03-15T04:29:24;1.73;;;0.52;;
23060;SDS011;11698;47.690;9.132;2023-03-15T04:31:50;0.45;;;0.40;;
23060;SDS011;11698;47.690;9.132;2023-03-15T04:34:16;1.77;;;0.60;;
23060;SDS011;11698;47.690;9.132;2023-03-15T04:36:42;1.50;;;0.90;;
23060;SDS011;11698;47.690;9.132;2023-03-15T04:39:08;0.70;;;0.60;;
23060;SDS011;11698;47.690;9.132;2023-03-15T04:41:34;1.30;;;0.63;;
23060;SDS011;11698;47.690;9.132;2023-03-15T04:44:00;1.08;;;0.60;;
23060;SDS011;11698;47.690;9.132;2023-03-15T04:46:27;1.35;;;0.65;;
23060;SDS011;11698;47.690;9.132;2023-03-15T04:48:53;1.17;;;0.52;;
23060;SDS011;11698;47.690;9.132;2023-03-15T04:51:19;1.35;;;0.70;;
23060;SDS011;11698;47.690;9.132;2023-03-15T04:53:45;1.70;;;0.60;;
23060;SDS011;11698;47.690;9.132;2023-03-15T04:56:11;1.15;;;0.70;;
23060;SDS011;11698;47.690;9.132;2023-03-15T04:58:37;1.60;;;0.60;;
23060;SDS011;11698;47.690;9.132;2023-03-15T05:01:03;0.82;;;0.60;;
23060;SDS011;11698;47.690;9.132;2023-03-15T05:03:29;2.17;;;0.50;;
23060;SDS011;11698;47.690;9.132;2023-03-15T05:05:55;1.60;;;0.60;;
23060;SDS011;11698;47.690;9.132;2023-03-15T05:08:21;1.08;;;0.70;;
23060;SDS011;11698;47.690;9.132;2023-03-15T05:10:47;3.55;;;0.77;;
23060;SDS011;11698;47.690;9.132;2023-03-15T05:13:13;1.93;;;0.70;;
23060;SDS011;11698;47.690;9.132;2023-03-15T05:15:39;1.08;;;0.60;;
23060;SDS011;11698;47.690;9.132;2023-03-15T05:18:05;0.93;;;0.40;;
23060;SDS011;11698;47.690;9.132;2023-03-15T05:20:31;1.65;;;0.75;;
23060;SDS011;11698;47.690;9.132;2023-03-15T05:22:57;2.05;;;0.77;;
23060;SDS011;11698;47.690;9.132;2023-03-15T05:25:23;4.28;;;0.80;;
23060;SDS011;11698;47.690;9.132;2023-03-15T05:27:49;1.45;;;0.60;;
23060;SDS011;11698;47.690;9.132;2023-03-15T05:30:16;2.17;;;0.80;;
23060;SDS011;11698;47.690;9.132;2023-03-15T05:32:42;2.15;;;0.50;;
23060;SDS011;11698;47.690;9.132;2023-03-15T05:35:09;1.77;;;0.93;;
23060;SDS011;11698;47.690;9.132;2023-03-15T05:37:35;1.15;;;0.70;;
23060;SDS011;11698;47.690;9.132;2023-03-15T05:40:01;0.70;;;0.50;;
23060;SDS011;11698;47.690;9.132;2023-03-15T05:42:28;1.20;;;0.90;;
23060;SDS011;11698;47.690;9.132;2023-03-15T05:44:55;1.10;;;0.65;;
23060;SDS011;11698;47.690;9.132;2023-03-15T05:47:21;2.15;;;0.68;;
23060;SDS011;11698;47.690;9.132;2023-03-15T05:49:47;2.47;;;0.82;;
23060;SDS011;11698;47.690;9.132;2023-03-15T05:52:14;1.30;;;0.80;;
23060;SDS011;11698;47.690;9.132;2023-03-15T05:54:40;1.38;;;0.70;;
23060;SDS011;11698;47.690;9.132;2023-03-15T05:57:06;4.43;;;0.77;;
23060;SDS011;11698;47.690;9.132;2023-03-15T05:59:32;3.10;;;0.70;;
23060;SDS011;11698;47.690;9.132;2023-03-15T06:01:58;1.90;;;1.05;;
23060;SDS011;11698;47.690;9.132;2023-03-15T06:04:24;1.50;;;1.20;;
23060;SDS011;11698;47.690;9.132;2023-03-15T06:06:50;2.75;;;1.10;;
23060;SDS011;11698;47.690;9.132;2023-03-15T06:09:17;4.85;;;1.00;;
23060;SDS011;11698;47.690;9.132;2023-03-15T06:11:43;3.57;;;1.30;;
23060;SDS011;11698;47.690;9.132;2023-03-15T06:14:09;4.15;;;1.75;;
23060;SDS011;11698;47.690;9.132;2023-03-15T06:16:35;6.90;;;3.60;;
23060;SDS011;11698;47.690;9.132;2023-03-15T06:19:01;4.35;;;2.30;;
23060;SDS011;11698;47.690;9.132;2023-03-15T06:21:27;3.67;;;2.20;;
23060;SDS011;11698;47.690;9.132;2023-03-15T06:23:53;4.50;;;2.50;;
23060;SDS011;11698;47.690;9.132;2023-03-15T06:26:19;3.60;;;2.22;;
23060;SDS011;11698;47.690;9.132;2023-03-15T06:28:46;3.45;;;2.05;;
23060;SDS011;11698;47.690;9.132;2023-03-15T06:31:12;1.92;;;1.40;;
23060;SDS011;11698;47.690;9.132;2023-03-15T06:33:38;2.65;;;1.60;;
23060;SDS011;11698;47.690;9.132;2023-03-15T06:36:05;5.25;;;1.80;;
23060;SDS011;11698;47.690;9.132;2023-03-15T06:38:31;2.72;;;1.30;;
23060;SDS011;11698;47.690;9.132;2023-03-15T06:40:58;1.65;;;1.27;;
23060;SDS011;11698;47.690;9.132;2023-03-15T06:43:29;2.20;;;1.00;;
23060;SDS011;11698;47.690;9.132;2023-03-15T06:45:55;1.55;;;1.00;;
23060;SDS011;11698;47.690;9.132;2023-03-15T06:48:23;2.73;;;1.27;;
23060;SDS011;11698;47.690;9.132;2023-03-15T06:50:49;2.05;;;1.35;;
23060;SDS011;11698;47.690;9.132;2023-03-15T06:53:15;2.40;;;1.30;;
23060;SDS011;11698;47.690;9.132;2023-03-15T06:55:42;2.53;;;1.00;;
23060;SDS011;11698;47.690;9.132;2023-03-15T06:58:08;5.90;;;1.90;;
23060;SDS011;11698;47.690;9.132;2023-03-15T07:00:34;3.63;;;2.00;;
23060;SDS011;11698;47.690;9.132;2023-03-15T07:03:00;6.53;;;2.10;;
23060;SDS011;11698;47.690;9.132;2023-03-15T07:05:26;3.28;;;1.90;;
23060;SDS011;11698;47.690;9.132;2023-03-15T07:07:52;3.83;;;2.15;;
23060;SDS011;11698;47.690;9.132;2023-03-15T07:10:18;3.78;;;1.90;;
23060;SDS011;11698;47.690;9.132;2023-03-15T07:12:45;4.03;;;1.90;;
23060;SDS011;11698;47.690;9.132;2023-03-15T07:15:11;2.63;;;1.60;;
23060;SDS011;11698;47.690;9.132;2023-03-15T07:17:37;3.15;;;1.77;;
23060;SDS011;11698;47.690;9.132;2023-03-15T07:20:03;3.08;;;1.58;;
23060;SDS011;11698;47.690;9.132;2023-03-15T07:22:30;2.40;;;1.33;;
23060;SDS011;11698;47.690;9.132;2023-03-15T07:24:56;2.65;;;1.23;;
23060;SDS011;11698;47.690;9.132;2023-03-15T07:27:22;1.73;;;1.10;;
23060;SDS011;11698;47.690;9.132;2023-03-15T07:29:48;2.42;;;1.10;;
23060;SDS011;11698;47.690;9.132;2023-03-15T07:32:14;2.67;;;0.93;;
23060;SDS011;11698;47.690;9.132;2023-03-15T07:34:40;2.42;;;0.90;;
23060;SDS011;11698;47.690;9.132;2023-03-15T07:37:06;1.93;;;1.00;;
23060;SDS011;11698;47.690;9.132;2023-03-15T07:39:32;2.60;;;0.80;;
23060;SDS011;11698;47.690;9.132;2023-03-15T07:41:58;2.10;;;0.75;;
23060;SDS011;11698;47.690;9.132;2023-03-15T07:44:24;2.50;;;1.08;;
23060;SDS011;11698;47.690;9.132;2023-03-15T07:46:51;1.15;;;0.70;;
23060;SDS011;11698;47.690;9.132;2023-03-15T07:49:18;1.70;;;0.88;;
23060;SDS011;11698;47.690;9.132;2023-03-15T07:51:45;3.95;;;1.00;;
23060;SDS011;11698;47.690;9.132;2023-03-15T07:54:11;2.10;;;1.00;;
23060;SDS011;11698;47.690;9.132;2023-03-15T07:56:37;3.60;;;1.20;;
23060;SDS011;11698;47.690;9.132;2023-03-15T07:59:03;3.28;;;1.17;;
23060;SDS011;11698;47.690;9.132;2023-03-15T08:01:29;2.75;;;0.93;;
23060;SDS011;11698;47.690;9.132;2023-03-15T08:03:55;1.55;;;0.93;;
23060;SDS011;11698;47.690;9.132;2023-03-15T08:06:21;3.42;;;0.90;;
23060;SDS011;11698;47.690;9.132;2023-03-15T08:08:47;3.33;;;1.00;;
23060;SDS011;11698;47.690;9.132;2023-03-15T08:11:13;2.92;;;0.85;;
23060;SDS011;11698;47.690;9.132;2023-03-15T08:13:39;2.75;;;1.13;;
23060;SDS011;11698;47.690;9.132;2023-03-15T08:16:05;4.15;;;1.20;;
23060;SDS011;11698;47.690;9.132;2023-03-15T08:18:31;2.53;;;0.90;;
23060;SDS011;11698;47.690;9.132;2023-03-15T08:20:57;1.38;;;0.82;;
23060;SDS011;11698;47.690;9.132;2023-03-15T08:23:23;1.70;;;0.90;;
23060;SDS011;11698;47.690;9.132;2023-03-15T08:25:50;2.88;;;0.60;;
23060;SDS011;11698;47.690;9.132;2023-03-15T08:28:16;1.50;;;0.70;;
23060;SDS011;11698;47.690;9.132;2023-03-15T08:30:42;2.70;;;0.82;;
23060;SDS011;11698;47.690;9.132;2023-03-15T08:33:08;1.75;;;0.88;;
23060;SDS011;11698;47.690;9.132;2023-03-15T08:35:36;2.10;;;0.70;;
23060;SDS011;11698;47.690;9.132;2023-03-15T08:38:02;1.50;;;0.60;;
23060;SDS011;11698;47.690;9.132;2023-03-15T08:40:28;2.42;;;0.73;;
23060;SDS011;11698;47.690;9.132;2023-03-15T08:42:55;3.22;;;1.00;;
23060;SDS011;11698;47.690;9.132;2023-03-15T08:45:22;2.60;;;0.73;;
23060;SDS011;11698;47.690;9.132;2023-03-15T08:47:49;1.20;;;0.60;;
23060;SDS011;11698;47.690;9.132;2023-03-15T08:50:15;1.42;;;0.50;;
23060;SDS011;11698;47.690;9.132;2023-03-15T08:52:43;1.05;;;0.60;;
23060;SDS011;11698;47.690;9.132;2023-03-15T08:55:09;1.42;;;1.00;;
23060;SDS011;11698;47.690;9.132;2023-03-15T08:57:38;1.85;;;0.80;;
23060;SDS011;11698;47.690;9.132;2023-03-15T09:00:05;1.02;;;0.70;;
23060;SDS011;11698;47.690;9.132;2023-03-15T09:02:34;1.90;;;1.00;;
23060;SDS011;11698;47.690;9.132;2023-03-15T09:05:01;3.40;;;1.02;;
23060;SDS011;11698;47.690;9.132;2023-03-15T09:07:28;2.25;;;1.02;;
23060;SDS011;11698;47.690;9.132;2023-03-15T09:09:56;2.53;;;0.80;;
23060;SDS011;11698;47.690;9.132;2023-03-15T09:12:22;2.28;;;0.90;;
23060;SDS011;11698;47.690;9.132;2023-03-15T09:14:48;1.42;;;0.90;;
23060;SDS011;11698;47.690;9.132;2023-03-15T09:17:14;3.30;;;0.73;;
23060;SDS011;11698;47.690;9.132;2023-03-15T09:19:40;1.85;;;0.88;;
23060;SDS011;11698;47.690;9.132;2023-03-15T09:22:06;3.65;;;1.13;;
23060;SDS011;11698;47.690;9.132;2023-03-15T09:24:32;1.40;;;0.85;;
23060;SDS011;11698;47.690;9.132;2023-03-15T09:26:58;1.90;;;0.80;;
23060;SDS011;11698;47.690;9.132;2023-03-15T09:29:24;1.65;;;1.00;;
23060;SDS011;11698;47.690;9.132;2023-03-15T09:31:50;3.42;;;0.65;;
23060;SDS011;11698;47.690;9.132;2023-03-15T09:34:16;1.77;;;0.90;;
23060;SDS011;11698;47.690;9.132;2023-03-15T09:36:42;0.73;;;0.40;;
23060;SDS011;11698;47.690;9.132;2023-03-15T09:39:08;1.88;;;1.02;;
23060;SDS011;11698;47.690;9.132;2023-03-15T09:41:45;1.17;;;0.80;;
23060;SDS011;11698;47.690;9.132;2023-03-15T09:46:56;1.73;;;0.90;;
23060;SDS011;11698;47.690;9.132;2023-03-15T09:52:03;1.63;;;0.80;;
23060;SDS011;11698;47.690;9.132;2023-03-15T09:57:00;0.70;;;0.50;;
23060;SDS011;11698;47.690;9.132;2023-03-15T09:59:29;1.50;;;0.60;;
23060;SDS011;11698;47.690;9.132;2023-03-15T10:01:57;1.65;;;0.77;;
23060;SDS011;11698;47.690;9.132;2023-03-15T10:04:29;1.25;;;0.80;;
23060;SDS011;11698;47.690;9.132;2023-03-15T10:06:59;1.85;;;0.82;;
23060;SDS011;11698;47.690;9.132;2023-03-15T10:09:27;0.93;;;0.73;;
23060;SDS011;11698;47.690;9.132;2023-03-15T10:16:58;2.45;;;1.08;;
23060;SDS011;11698;47.690;9.132;2023-03-15T10:25:00;2.00;;;0.80;;
23060;SDS011;11698;47.690;9.132;2023-03-15T10:32:55;1.20;;;0.70;;
23060;SDS011;11698;47.690;9.132;2023-03-15T10:35:22;1.83;;;0.90;;
23060;SDS011;11698;47.690;9.132;2023-03-15T10:37:48;0.50;;;0.50;;
23060;SDS011;11698;47.690;9.132;2023-03-15T10:40:14;0.45;;;0.40;;
23060;SDS011;11698;47.690;9.132;2023-03-15T10:42:44;0.50;;;0.50;;
23060;SDS011;11698;47.690;9.132;2023-03-15T10:45:12;1.75;;;0.70;;
23060;SDS011;11698;47.690;9.132;2023-03-15T10:47:39;1.35;;;0.57;;
23060;SDS011;11698;47.690;9.132;2023-03-15T10:50:06;0.82;;;0.47;;
23060;SDS011;11698;47.690;9.132;2023-03-15T10:52:33;0.88;;;0.73;;
23060;SDS011;11698;47.690;9.132;2023-03-15T10:55:04;0.40;;;0.40;;
23060;SDS011;11698;47.690;9.132;2023-03-15T10:57:34;1.17;;;0.70;;
23060;SDS011;11698;47.690;9.132;2023-03-15T11:00:05;1.20;;;0.40;;
23060;SDS011;11698;47.690;9.132;2023-03-15T11:02:33;2.20;;;0.77;;
23060;SDS011;11698;47.690;9.132;2023-03-15T11:07:26;0.40;;;0.40;;
23060;SDS011;11698;47.690;9.132;2023-03-15T11:09:58;0.63;;;0.63;;
23060;SDS011;11698;47.690;9.132;2023-03-15T11:12:26;0.45;;;0.40;;
23060;SDS011;11698;47.690;9.132;2023-03-15T11:14:56;1.67;;;0.68;;
23060;SDS011;11698;47.690;9.132;2023-03-15T11:17:24;0.60;;;0.60;;
23060;SDS011;11698;47.690;9.132;2023-03-15T11:19:53;0.93;;;0.45;;
23060;SDS011;11698;47.690;9.132;2023-03-15T11:22:20;1.90;;;0.30;;
23060;SDS011;11698;47.690;9.132;2023-03-15T11:24:46;0.30;;;0.22;;
23060;SDS011;11698;47.690;9.132;2023-03-15T11:27:13;0.80;;;0.40;;
23060;SDS011;11698;47.690;9.132;2023-03-15T11:29:41;0.45;;;0.43;;
23060;SDS011;11698;47.690;9.132;2023-03-15T11:32:12;0.70;;;0.60;;
23060;SDS011;11698;47.690;9.132;2023-03-15T11:37:13;0.50;;;0.35;;
23060;SDS011;11698;47.690;9.132;2023-03-15T11:39:46;2.10;;;0.40;;
23060;SDS011;11698;47.690;9.132;2023-03-15T11:42:23;1.23;;;0.65;;
23060;SDS011;11698;47.690;9.132;2023-03-15T11:44:51;0.73;;;0.40;;
23060;SDS011;11698;47.690;9.132;2023-03-15T11:47:22;0.60;;;0.60;;
23060;SDS011;11698;47.690;9.132;2023-03-15T11:49:52;1.27;;;0.40;;
23060;SDS011;11698;47.690;9.132;2023-03-15T11:52:22;0.80;;;0.43;;
23060;SDS011;11698;47.690;9.132;2023-03-15T11:54:49;0.50;;;0.30;;
23060;SDS011;11698;47.690;9.132;2023-03-15T12:00:14;2.00;;;0.20;;
23060;SDS011;11698;47.690;9.132;2023-03-15T12:02:48;0.90;;;0.45;;
23060;SDS011;11698;47.690;9.132;2023-03-15T12:09:04;0.52;;;0.32;;
23060;SDS011;11698;47.690;9.132;2023-03-15T12:10:59;1.00;;;0.40;;
23060;SDS011;11698;47.690;9.132;2023-03-15T12:13:26;0.30;;;0.30;;
23060;SDS011;11698;47.690;9.132;2023-03-15T12:15:53;0.47;;;0.47;;
23060;SDS011;11698;47.690;9.132;2023-03-15T12:18:29;1.40;;;0.40;;
23060;SDS011;11698;47.690;9.132;2023-03-15T12:21:04;0.40;;;0.40;;
23060;SDS011;11698;47.690;9.132;2023-03-15T12:23:38;0.47;;;0.30;;
23060;SDS011;11698;47.690;9.132;2023-03-15T12:26:05;0.35;;;0.20;;
23060;SDS011;11698;47.690;9.132;2023-03-15T12:31:01;0.28;;;0.22;;
23060;SDS011;11698;47.690;9.132;2023-03-15T12:33:28;0.73;;;0.32;;
23060;SDS011;11698;47.690;9.132;2023-03-15T12:36:03;0.20;;;0.17;;
23060;SDS011;11698;47.690;9.132;2023-03-15T12:38:34;0.43;;;0.30;;
23060;SDS011;11698;47.690;9.132;2023-03-15T12:41:01;0.47;;;0.37;;
23060;SDS011;11698;47.690;9.132;2023-03-15T12:43:39;0.10;;;0.10;;
23060;SDS011;11698;47.690;9.132;2023-03-15T12:46:23;0.40;;;0.20;;
23060;SDS011;11698;47.690;9.132;2023-03-15T12:52:05;0.22;;;0.13;;
23060;SDS011;11698;47.690;9.132;2023-03-15T12:54:33;0.50;;;0.20;;
23060;SDS011;11698;47.690;9.132;2023-03-15T12:57:02;2.20;;;0.30;;
23060;SDS011;11698;47.690;9.132;2023-03-15T13:01:59;1.38;;;0.32;;
23060;SDS011;11698;47.690;9.132;2023-03-15T13:04:26;0.65;;;0.22;;
23060;SDS011;11698;47.690;9.132;2023-03-15T13:06:59;0.15;;;0.13;;
23060;SDS011;11698;47.690;9.132;2023-03-15T13:12:07;0.20;;;0.20;;
23060;SDS011;11698;47.690;9.132;2023-03-15T13:14:43;1.17;;;0.45;;
23060;SDS011;11698;47.690;9.132;2023-03-15T13:19:42;0.40;;;0.22;;
23060;SDS011;11698;47.690;9.132;2023-03-15T13:25:02;0.38;;;0.20;;
23060;SDS011;11698;47.690;9.132;2023-03-15T13:30:37;0.60;;;0.20;;
23060;SDS011;11698;47.690;9.132;2023-03-15T13:33:05;0.35;;;0.20;;
23060;SDS011;11698;47.690;9.132;2023-03-15T13:35:31;0.50;;;0.20;;
23060;SDS011;11698;47.690;9.132;2023-03-15T13:40:45;0.20;;;0.10;;
23060;SDS011;11698;47.690;9.132;2023-03-15T13:43:11;0.60;;;0.30;;
23060;SDS011;11698;47.690;9.132;2023-03-15T13:45:40;0.38;;;0.20;;
23060;SDS011;11698;47.690;9.132;2023-03-15T13:48:07;0.70;;;0.10;;
23060;SDS011;11698;47.690;9.132;2023-03-15T13:50:33;0.60;;;0.20;;
23060;SDS011;11698;47.690;9.132;2023-03-15T13:52:59;0.10;;;0.10;;
23060;SDS011;11698;47.690;9.132;2023-03-15T13:55:27;0.40;;;0.20;;
23060;SDS011;11698;47.690;9.132;2023-03-15T13:57:55;0.20;;;0.20;;
23060;SDS011;11698;47.690;9.132;2023-03-15T14:00:23;0.38;;;0.22;;
23060;SDS011;11698;47.690;9.132;2023-03-15T14:05:20;1.60;;;0.30;;
23060;SDS011;11698;47.690;9.132;2023-03-15T14:07:54;0.35;;;0.13;;
23060;SDS011;11698;47.690;9.132;2023-03-15T14:10:22;0.20;;;0.13;;
23060;SDS011;11698;47.690;9.132;2023-03-15T14:12:50;0.80;;;0.22;;
23060;SDS011;11698;47.690;9.132;2023-03-15T14:18:00;0.60;;;0.30;;
23060;SDS011;11698;47.690;9.132;2023-03-15T14:20:27;0.20;;;0.10;;
23060;SDS011;11698;47.690;9.132;2023-03-15T14:22:58;0.13;;;0.13;;
23060;SDS011;11698;47.690;9.132;2023-03-15T14:25:24;0.20;;;0.20;;
23060;SDS011;11698;47.690;9.132;2023-03-15T14:27:51;0.70;;;0.20;;
23060;SDS011;11698;47.690;9.132;2023-03-15T14:30:18;0.20;;;0.10;;
23060;SDS011;11698;47.690;9.132;2023-03-15T14:32:53;0.70;;;0.20;;
23060;SDS011;11698;47.690;9.132;2023-03-15T14:37:45;0.10;;;0.10;;
23060;SDS011;11698;47.690;9.132;2023-03-15T14:42:47;0.60;;;0.20;;
23060;SDS011;11698;47.690;9.132;2023-03-15T14:45:14;0.70;;;0.20;;
23060;SDS011;11698;47.690;9.132;2023-03-15T14:47:42;0.17;;;0.10;;
23060;SDS011;11698;47.690;9.132;2023-03-15T14:50:11;0.68;;;0.20;;
23060;SDS011;11698;47.690;9.132;2023-03-15T14:52:38;1.10;;;0.30;;
23060;SDS011;11698;47.690;9.132;2023-03-15T14:55:08;0.90;;;0.30;;
23060;SDS011;11698;47.690;9.132;2023-03-15T14:57:36;1.10;;;0.20;;
23060;SDS011;11698;47.690;9.132;2023-03-15T15:00:02;0.88;;;0.20;;
23060;SDS011;11698;47.690;9.132;2023-03-15T15:02:29;1.60;;;0.20;;
23060;SDS011;11698;47.690;9.132;2023-03-15T15:04:55;0.50;;;0.20;;
23060;SDS011;11698;47.690;9.132;2023-03-15T15:07:21;0.70;;;0.20;;
23060;SDS011;11698;47.690;9.132;2023-03-15T15:09:48;0.50;;;0.10;;
23060;SDS011;11698;47.690;9.132;2023-03-15T15:12:15;0.52;;;0.10;;
23060;SDS011;11698;47.690;9.132;2023-03-15T15:14:42;0.45;;;0.20;;
23060;SDS011;11698;47.690;9.132;2023-03-15T15:17:08;0.10;;;0.10;;
23060;SDS011;11698;47.690;9.132;2023-03-15T15:19:35;0.47;;;0.20;;
23060;SDS011;11698;47.690;9.132;2023-03-15T15:22:01;0.25;;;0.20;;
23060;SDS011;11698;47.690;9.132;2023-03-15T15:24:27;0.17;;;0.17;;
23060;SDS011;11698;47.690;9.132;2023-03-15T15:26:54;0.30;;;0.25;;
23060;SDS011;11698;47.690;9.132;2023-03-15T15:29:20;0.80;;;0.10;;
23060;SDS011;11698;47.690;9.132;2023-03-15T15:31:46;0.20;;;0.10;;
23060;SDS011;11698;47.690;9.132;2023-03-15T15:34:12;0.60;;;0.20;;
23060;SDS011;11698;47.690;9.132;2023-03-15T15:36:39;0.50;;;0.20;;
23060;SDS011;11698;47.690;9.132;2023-03-15T15:39:26;0.10;;;0.10;;
23060;SDS011;11698;47.690;9.132;2023-03-15T15:41:53;0.13;;;0.13;;
23060;SDS011;11698;47.690;9.132;2023-03-15T15:44:20;0.40;;;0.17;;
23060;SDS011;11698;47.690;9.132;2023-03-15T15:46:47;0.40;;;0.20;;
23060;SDS011;11698;47.690;9.132;2023-03-15T15:49:14;1.00;;;0.90;;
23060;SDS011;11698;47.690;9.132;2023-03-15T15:51:41;0.68;;;0.60;;
23060;SDS011;11698;47.690;9.132;2023-03-15T15:54:19;5.28;;;4.38;;
23060;SDS011;11698;47.690;9.132;2023-03-15T15:56:48;5.80;;;5.32;;
23060;SDS011;11698;47.690;9.132;2023-03-15T15:59:16;5.90;;;5.30;;
23060;SDS011;11698;47.690;9.132;2023-03-15T16:01:42;0.80;;;0.75;;